Time;durP1;ratioP1;P1;durP2;ratioP2;P2;SDS_P1;SDS_P2;PMS_P1;PMS_P2;Temp;Humidity;BMP_temperature;BMP_pressure;BME280_temperature;BME280_humidity;BME280_pressure;Samples;Min_cycle;Max_cycle;Signal;HPM_P1;HPM_P2
2021/06/09 00:01:37;;;;;;;49.35;35.25;;;15.10;99.90;;;;;;4954216;28;20054;-80
2021/06/09 00:04:05;;;;;;;48.55;36.08;;;15.10;99.90;;;;;;4959714;28;20117;-80
2021/06/09 00:06:32;;;;;;;55.58;37.38;;;15.00;99.90;;;;;;4986614;28;20137;-83
2021/06/09 00:08:58;;;;;;;58.55;37.65;;;15.10;99.90;;;;;;4972941;28;20100;-79
2021/06/09 00:11:26;;;;;;;60.20;39.33;;;15.10;99.90;;;;;;4957699;28;20058;-79
2021/06/09 00:13:53;;;;;;;55.70;38.63;;;15.10;99.90;;;;;;4957923;28;20056;-80
2021/06/09 00:16:20;;;;;;;53.35;35.78;;;15.10;99.90;;;;;;4964920;28;20054;-78
2021/06/09 00:18:49;;;;;;;50.55;37.03;;;15.10;99.90;;;;;;4974834;28;20058;-81
2021/06/09 00:21:18;;;;;;;51.65;35.03;;;15.00;99.90;;;;;;4947407;28;20054;-80
2021/06/09 00:23:45;;;;;;;50.78;34.55;;;15.00;99.90;;;;;;4969036;28;20047;-79
2021/06/09 00:26:13;;;;;;;46.97;33.80;;;15.00;99.90;;;;;;4974640;28;20038;-79
2021/06/09 00:28:40;;;;;;;48.63;33.00;;;15.00;99.90;;;;;;4953179;28;20057;-81
2021/06/09 00:31:08;;;;;;;44.78;32.53;;;15.10;99.90;;;;;;4938038;28;20498;-81
2021/06/09 00:33:35;;;;;;;47.08;33.83;;;15.10;99.90;;;;;;4965120;28;20048;-78
2021/06/09 00:36:04;;;;;;;49.45;34.17;;;15.10;99.90;;;;;;4952330;28;20054;-79
2021/06/09 00:38:31;;;;;;;46.30;33.55;;;15.00;99.90;;;;;;4985819;28;20129;-81
2021/06/09 00:40:59;;;;;;;47.92;34.10;;;15.00;99.90;;;;;;4941653;28;20061;-81
2021/06/09 00:43:28;;;;;;;47.47;34.20;;;15.10;99.90;;;;;;4974548;28;20061;-80
2021/06/09 00:46:00;;;;;;;45.65;33.15;;;15.00;99.90;;;;;;4972581;28;20054;-81
2021/06/09 00:48:31;;;;;;;46.33;34.50;;;15.10;99.90;;;;;;4960740;28;20137;-78
2021/06/09 00:51:01;;;;;;;44.53;31.63;;;15.00;99.90;;;;;;4973976;28;20304;-81
2021/06/09 00:53:33;;;;;;;40.97;29.20;;;15.00;99.90;;;;;;4957688;28;20047;-81
2021/06/09 00:56:09;;;;;;;41.13;30.50;;;15.00;99.90;;;;;;4950353;28;20058;-83
2021/06/09 00:58:37;;;;;;;38.17;29.88;;;15.00;99.90;;;;;;4953030;28;20188;-81
2021/06/09 01:01:06;;;;;;;42.60;29.63;;;15.10;99.90;;;;;;4945776;28;20043;-84
2021/06/09 01:03:35;;;;;;;45.95;31.75;;;15.20;99.90;;;;;;4960565;28;20450;-85
2021/06/09 01:06:03;;;;;;;48.25;33.30;;;15.10;99.90;;;;;;4999656;28;20052;-82
2021/06/09 01:08:34;;;;;;;52.45;34.72;;;14.80;99.90;;;;;;4966722;28;20448;-82
2021/06/09 01:11:01;;;;;;;57.10;36.60;;;14.80;99.90;;;;;;4954085;28;20523;-83
2021/06/09 01:13:29;;;;;;;50.33;36.38;;;14.70;99.90;;;;;;5008819;28;20656;-81
2021/06/09 01:15:57;;;;;;;51.17;34.28;;;14.70;99.90;;;;;;5014887;28;20034;-81
2021/06/09 01:18:25;;;;;;;46.90;32.60;;;14.70;99.90;;;;;;4992965;28;20552;-80
2021/06/09 01:20:52;;;;;;;38.50;30.17;;;14.80;99.90;;;;;;4989388;28;20066;-83
2021/06/09 01:23:20;;;;;;;40.70;31.50;;;14.80;99.90;;;;;;4974970;28;20065;-83
2021/06/09 01:25:49;;;;;;;41.00;30.65;;;14.90;99.90;;;;;;4990273;28;20137;-83
2021/06/09 01:28:17;;;;;;;45.28;32.08;;;14.90;99.90;;;;;;4971702;28;20138;-83
2021/06/09 01:30:45;;;;;;;41.70;31.85;;;14.90;99.90;;;;;;4956291;28;20042;-83
2021/06/09 01:33:13;;;;;;;49.70;33.35;;;14.90;99.90;;;;;;4976764;28;20114;-83
2021/06/09 01:35:42;;;;;;;51.55;33.95;;;14.90;99.90;;;;;;4976451;28;20049;-81
2021/06/09 01:38:10;;;;;;;45.22;32.55;;;14.90;99.90;;;;;;4973376;28;20049;-81
2021/06/09 01:40:37;;;;;;;47.75;32.88;;;14.80;99.90;;;;;;4975401;28;20038;-79
2021/06/09 01:43:04;;;;;;;45.35;32.78;;;14.80;99.90;;;;;;4988788;28;20053;-80
2021/06/09 01:45:33;;;;;;;45.05;33.58;;;14.90;99.90;;;;;;4991573;28;20044;-80
2021/06/09 01:48:00;;;;;;;44.97;32.95;;;15.00;99.90;;;;;;4992044;28;20069;-80
2021/06/09 01:50:27;;;;;;;46.88;33.28;;;14.90;99.90;;;;;;4966189;28;20049;-80
2021/06/09 01:52:55;;;;;;;46.00;35.15;;;14.90;99.90;;;;;;4987440;28;20157;-80
2021/06/09 01:55:24;;;;;;;46.80;34.47;;;14.90;99.90;;;;;;4989716;28;20050;-80
2021/06/09 01:57:52;;;;;;;51.65;35.35;;;14.80;99.90;;;;;;4979430;28;20047;-84
2021/06/09 02:00:24;;;;;;;48.90;36.42;;;14.90;99.90;;;;;;4975384;28;20046;-80
2021/06/09 02:02:59;;;;;;;52.13;36.80;;;14.90;99.90;;;;;;4943460;28;20051;-79
2021/06/09 02:05:32;;;;;;;52.72;36.38;;;15.00;99.90;;;;;;4981543;28;20042;-80
2021/06/09 02:08:01;;;;;;;48.83;35.25;;;15.10;99.90;;;;;;4958055;28;20053;-81
2021/06/09 02:10:29;;;;;;;46.50;35.50;;;15.10;99.90;;;;;;4958722;28;20053;-84
2021/06/09 02:12:58;;;;;;;48.47;35.70;;;15.00;99.90;;;;;;4944579;28;20047;-81
2021/06/09 02:15:26;;;;;;;44.03;32.85;;;15.00;99.90;;;;;;4972023;28;20642;-79
2021/06/09 02:17:57;;;;;;;50.22;35.38;;;15.00;99.90;;;;;;4954405;28;20042;-80
2021/06/09 02:20:27;;;;;;;44.85;32.78;;;15.00;99.90;;;;;;4956009;28;20137;-79
2021/06/09 02:22:55;;;;;;;48.03;34.55;;;15.00;99.90;;;;;;4956797;28;20494;-80
2021/06/09 02:25:23;;;;;;;46.13;32.60;;;15.20;99.90;;;;;;4975737;28;20093;-81
2021/06/09 02:27:51;;;;;;;46.75;34.70;;;15.20;99.90;;;;;;4993739;28;20049;-81
2021/06/09 02:30:19;;;;;;;52.47;36.05;;;15.20;99.90;;;;;;4992902;28;20088;-81
2021/06/09 02:32:47;;;;;;;52.45;35.72;;;15.10;99.90;;;;;;4975246;28;20073;-81
2021/06/09 02:35:18;;;;;;;46.10;34.00;;;15.00;99.90;;;;;;4968859;28;20141;-82
2021/06/09 02:37:49;;;;;;;46.85;34.30;;;14.80;99.90;;;;;;4958507;28;20050;-82
2021/06/09 02:40:19;;;;;;;45.95;33.88;;;14.90;99.90;;;;;;4974173;28;20046;-80
2021/06/09 02:42:46;;;;;;;49.85;34.85;;;14.90;99.90;;;;;;4942901;28;20544;-81
2021/06/09 02:45:17;;;;;;;47.85;34.67;;;14.90;99.90;;;;;;4978083;28;20046;-82
2021/06/09 02:47:47;;;;;;;45.03;32.00;;;14.90;99.90;;;;;;4959946;28;20042;-81
2021/06/09 02:50:17;;;;;;;47.28;34.67;;;14.90;99.90;;;;;;4974263;28;20061;-81
2021/06/09 02:53:18;;;;;;;49.40;32.75;;;14.90;99.90;;;;;;4946722;28;20047;-82
2021/06/09 02:56:10;;;;;;;46.45;33.97;;;14.70;99.90;;;;;;4966901;28;20046;-81
2021/06/09 02:58:45;;;;;;;57.40;37.63;;;14.70;99.90;;;;;;4923028;28;20096;-79
2021/06/09 03:01:43;;;;;;;51.22;36.00;;;14.80;99.90;;;;;;4937695;28;20047;-83
2021/06/09 03:04:43;;;;;;;58.70;38.85;;;14.60;99.90;;;;;;4972041;28;20146;-82
2021/06/09 03:07:13;;;;;;;66.53;41.53;;;14.40;99.90;;;;;;4956214;28;20344;-84
2021/06/09 03:10:05;;;;;;;65.75;41.30;;;14.40;99.90;;;;;;4959146;28;20051;-83
2021/06/09 03:12:45;;;;;;;59.25;37.40;;;14.20;99.90;;;;;;4991859;28;20092;-81
2021/06/09 03:15:17;;;;;;;54.10;37.22;;;14.20;99.90;;;;;;4990554;28;20062;-82
2021/06/09 03:18:11;;;;;;;51.53;35.65;;;14.10;99.90;;;;;;4956771;28;20053;-80
2021/06/09 03:20:59;;;;;;;73.85;43.55;;;14.00;99.90;;;;;;4982159;28;20050;-83
2021/06/09 03:23:50;;;;;;;68.32;42.03;;;14.00;99.90;;;;;;4974948;28;20075;-84
2021/06/09 03:26:37;;;;;;;58.38;38.08;;;14.10;99.90;;;;;;4977853;28;20086;-81
2021/06/09 03:29:05;;;;;;;65.50;40.83;;;13.90;99.90;;;;;;4955360;28;20049;-83
2021/06/09 03:31:37;;;;;;;52.47;37.05;;;13.80;99.90;;;;;;4985725;28;20460;-79
2021/06/09 03:34:11;;;;;;;57.10;36.70;;;13.70;99.90;;;;;;4986856;28;20572;-81
2021/06/09 03:36:40;;;;;;;55.92;36.80;;;13.70;99.90;;;;;;4950834;28;20078;-82
2021/06/09 03:39:09;;;;;;;65.20;38.88;;;13.80;99.90;;;;;;4975120;28;20050;-83
2021/06/09 03:41:38;;;;;;;66.85;42.03;;;14.00;99.90;;;;;;4988731;28;20052;-82
2021/06/09 03:44:06;;;;;;;64.50;40.45;;;13.80;99.90;;;;;;4997706;28;20049;-82
2021/06/09 03:46:37;;;;;;;60.05;40.40;;;13.80;99.90;;;;;;4981941;28;20511;-83
2021/06/09 03:49:10;;;;;;;60.50;36.60;;;13.80;99.90;;;;;;4994965;28;20045;-80
2021/06/09 03:51:40;;;;;;;56.00;35.78;;;13.80;99.90;;;;;;4995028;28;20646;-81
2021/06/09 03:54:08;;;;;;;74.22;43.63;;;13.80;99.90;;;;;;4978142;28;20049;-82
2021/06/09 03:56:39;;;;;;;64.70;40.72;;;13.90;99.90;;;;;;5010333;28;20042;-82
2021/06/09 03:59:07;;;;;;;77.20;43.88;;;14.00;99.90;;;;;;4986436;28;20585;-79
2021/06/09 04:01:39;;;;;;;78.63;46.10;;;14.00;99.90;;;;;;4974397;28;20073;-83
2021/06/09 04:04:08;;;;;;;79.28;46.60;;;14.10;99.90;;;;;;4941575;28;20461;-83
2021/06/09 04:06:39;;;;;;;69.57;43.35;;;13.90;99.90;;;;;;5003342;28;20124;-82
2021/06/09 04:09:06;;;;;;;67.80;41.45;;;13.90;99.90;;;;;;4976455;28;20060;-83
2021/06/09 04:11:34;;;;;;;66.88;41.58;;;13.80;99.90;;;;;;4988400;28;20057;-81
2021/06/09 04:14:01;;;;;;;54.65;35.63;;;13.90;99.90;;;;;;4974900;28;20483;-82
2021/06/09 04:16:31;;;;;;;50.45;33.25;;;13.90;99.90;;;;;;4982565;28;20058;-82
2021/06/09 04:18:59;;;;;;;45.95;33.22;;;13.90;99.90;;;;;;4975489;28;20128;-80
2021/06/09 04:21:26;;;;;;;53.85;35.40;;;13.80;99.90;;;;;;4969761;28;20438;-80
2021/06/09 04:23:54;;;;;;;44.80;30.30;;;13.80;99.90;;;;;;4939847;28;20533;-80
2021/06/09 04:26:23;;;;;;;57.90;35.63;;;13.90;99.90;;;;;;4964031;28;20046;-78
2021/06/09 04:28:53;;;;;;;49.63;33.83;;;13.90;99.90;;;;;;4956726;28;20501;-80
2021/06/09 04:31:20;;;;;;;49.63;34.78;;;13.90;99.90;;;;;;4945595;28;20058;-82
2021/06/09 04:33:55;;;;;;;58.88;38.00;;;13.90;99.90;;;;;;4972410;28;20041;-80
2021/06/09 04:36:22;;;;;;;57.83;37.78;;;13.80;99.90;;;;;;4974112;28;20053;-82
2021/06/09 04:38:49;;;;;;;60.67;40.83;;;13.80;99.90;;;;;;4958467;28;20144;-80
2021/06/09 04:41:18;;;;;;;60.22;39.35;;;13.90;99.90;;;;;;4982113;28;20061;-81
2021/06/09 04:43:45;;;;;;;57.53;39.10;;;13.90;99.90;;;;;;4972851;28;20042;-81
2021/06/09 04:46:18;;;;;;;54.80;36.05;;;14.00;99.90;;;;;;5003574;28;20046;-80
2021/06/09 04:48:55;;;;;;;52.38;36.15;;;14.00;99.90;;;;;;4975979;28;20447;-80
2021/06/09 04:51:27;;;;;;;49.55;33.55;;;14.10;99.90;;;;;;4974272;28;20050;-81
2021/06/09 04:53:55;;;;;;;43.85;33.42;;;14.30;99.90;;;;;;4973485;28;20060;-81
2021/06/09 04:56:22;;;;;;;39.95;30.27;;;14.70;99.90;;;;;;4973025;28;20046;-83
2021/06/09 04:58:49;;;;;;;41.38;30.45;;;15.10;99.90;;;;;;4980748;28;20039;-84
2021/06/09 05:01:16;;;;;;;35.30;27.48;;;15.40;99.90;;;;;;4986143;28;20042;-82
2021/06/09 05:03:43;;;;;;;37.28;27.63;;;15.70;99.90;;;;;;4989092;28;20050;-81
2021/06/09 05:06:10;;;;;;;31.70;26.45;;;16.00;99.90;;;;;;4968759;28;20109;-79
2021/06/09 05:08:38;;;;;;;35.03;29.02;;;16.10;99.90;;;;;;4985587;28;20056;-82
2021/06/09 05:11:10;;;;;;;33.55;28.70;;;16.50;99.90;;;;;;4997093;28;20050;-82
2021/06/09 05:13:40;;;;;;;32.50;29.00;;;17.20;99.90;;;;;;4963721;28;20054;-82
2021/06/09 05:16:12;;;;;;;36.67;31.13;;;17.60;99.90;;;;;;4967637;28;20300;-82
2021/06/09 05:18:45;;;;;;;37.97;33.83;;;17.80;99.90;;;;;;4992687;28;20163;-84
2021/06/09 05:21:18;;;;;;;38.78;32.17;;;18.20;99.90;;;;;;4960202;28;20062;-81
2021/06/09 05:23:49;;;;;;;39.65;33.85;;;18.60;99.90;;;;;;4957601;28;20110;-83
2021/06/09 05:26:17;;;;;;;42.25;35.30;;;18.80;99.90;;;;;;5006001;28;20047;-80
2021/06/09 05:28:49;;;;;;;37.78;32.13;;;18.90;99.90;;;;;;4993956;28;20050;-80
2021/06/09 05:31:18;;;;;;;41.22;35.97;;;19.00;99.90;;;;;;4994201;28;20108;-81
2021/06/09 05:33:46;;;;;;;38.58;33.72;;;19.00;99.90;;;;;;4952242;28;20038;-82
2021/06/09 05:36:14;;;;;;;38.45;34.33;;;19.20;99.90;;;;;;4965046;28;20049;-80
2021/06/09 05:38:43;;;;;;;39.45;35.33;;;19.40;99.90;;;;;;4974762;28;20061;-79
2021/06/09 05:41:14;;;;;;;39.60;35.30;;;19.60;99.90;;;;;;4928433;28;20050;-81
2021/06/09 05:43:41;;;;;;;38.22;34.20;;;20.00;99.90;;;;;;4966212;28;20043;-79
2021/06/09 05:46:10;;;;;;;41.72;37.15;;;20.10;99.90;;;;;;4977879;28;20046;-82
2021/06/09 05:48:41;;;;;;;43.25;37.20;;;20.20;99.90;;;;;;4958685;28;20057;-80
2021/06/09 05:51:10;;;;;;;44.75;39.63;;;20.30;99.90;;;;;;4924987;28;20521;-79
2021/06/09 05:53:37;;;;;;;45.17;40.28;;;20.60;99.90;;;;;;4942335;28;20050;-80
2021/06/09 05:56:05;;;;;;;47.35;40.13;;;20.80;99.90;;;;;;4944806;28;20062;-80
2021/06/09 05:58:32;;;;;;;48.67;42.35;;;21.00;99.90;;;;;;4972041;28;20054;-81
2021/06/09 06:01:04;;;;;;;46.42;41.00;;;21.30;99.90;;;;;;4989201;28;20141;-81
2021/06/09 06:03:31;;;;;;;44.35;39.13;;;21.50;99.90;;;;;;4993120;28;20046;-82
2021/06/09 06:06:02;;;;;;;44.45;39.15;;;21.50;99.90;;;;;;4975834;28;20035;-81
2021/06/09 06:08:31;;;;;;;51.17;45.63;;;21.50;99.90;;;;;;4976720;28;20039;-81
2021/06/09 06:11:05;;;;;;;51.25;45.47;;;21.60;99.90;;;;;;4977340;28;20042;-81
2021/06/09 06:13:36;;;;;;;49.25;43.92;;;21.60;99.90;;;;;;4981784;28;20052;-82
2021/06/09 06:16:04;;;;;;;57.15;45.67;;;21.60;99.90;;;;;;4964743;28;20054;-80
2021/06/09 06:18:36;;;;;;;51.08;45.55;;;21.40;99.90;;;;;;4966374;28;20073;-81
2021/06/09 06:21:05;;;;;;;48.65;42.75;;;21.20;99.90;;;;;;4972344;28;20077;-82
2021/06/09 06:23:32;;;;;;;54.22;43.33;;;21.20;99.90;;;;;;4956399;28;20163;-82
2021/06/09 06:26:10;;;;;;;52.58;44.17;;;21.30;99.90;;;;;;4973891;28;20047;-82
2021/06/09 06:28:41;;;;;;;55.08;45.35;;;21.60;99.90;;;;;;4976287;28;20046;-83
2021/06/09 06:31:14;;;;;;;53.03;45.95;;;21.70;99.90;;;;;;4961824;28;20154;-82
2021/06/09 06:33:46;;;;;;;56.08;48.40;;;21.80;99.90;;;;;;4968928;28;20125;-82
2021/06/09 06:36:18;;;;;;;60.08;49.92;;;22.00;99.90;;;;;;4977201;28;20046;-81
2021/06/09 06:38:45;;;;;;;55.95;47.03;;;22.30;99.90;;;;;;4995084;28;20050;-82
2021/06/09 06:41:13;;;;;;;55.80;46.65;;;22.60;99.90;;;;;;4991321;28;20042;-80
2021/06/09 06:43:40;;;;;;;56.85;49.53;;;22.70;99.90;;;;;;4970645;28;20140;-81
2021/06/09 06:46:14;;;;;;;57.83;48.40;;;22.70;99.90;;;;;;4977445;28;20137;-80
2021/06/09 06:48:42;;;;;;;58.90;49.45;;;22.50;99.90;;;;;;4974756;28;20043;-82
2021/06/09 06:51:11;;;;;;;56.13;46.88;;;22.70;99.90;;;;;;4985157;28;20508;-83
2021/06/09 06:53:47;;;;;;;51.63;46.10;;;22.80;99.90;;;;;;4965445;28;20045;-79
2021/06/09 06:56:16;;;;;;;50.47;45.05;;;22.70;99.90;;;;;;4993383;28;20088;-81
2021/06/09 06:58:48;;;;;;;53.22;47.13;;;22.90;99.90;;;;;;4977195;28;20042;-81
2021/06/09 07:01:30;;;;;;;52.55;46.80;;;23.00;99.90;;;;;;4979228;28;20105;-83
2021/06/09 07:03:59;;;;;;;49.30;44.10;;;23.20;99.90;;;;;;4977019;28;20105;-80
2021/06/09 07:06:26;;;;;;;53.33;47.13;;;23.30;99.90;;;;;;4974223;28;20047;-81
2021/06/09 07:09:07;;;;;;;50.42;45.00;;;23.60;99.90;;;;;;4951171;28;20047;-81
2021/06/09 07:11:36;;;;;;;49.85;44.58;;;23.50;99.90;;;;;;4962383;28;20046;-80
2021/06/09 07:14:05;;;;;;;51.20;45.90;;;23.50;99.90;;;;;;4961248;28;20119;-79
2021/06/09 07:16:33;;;;;;;49.85;44.72;;;23.30;99.90;;;;;;4967872;28;20042;-80
2021/06/09 07:19:03;;;;;;;49.80;44.58;;;23.00;99.90;;;;;;4974953;28;20039;-80
2021/06/09 07:21:31;;;;;;;45.40;40.58;;;23.30;99.90;;;;;;4943640;28;20077;-79
2021/06/09 07:24:00;;;;;;;52.05;46.47;;;23.30;99.90;;;;;;4959964;28;20168;-80
2021/06/09 07:26:32;;;;;;;52.83;47.30;;;23.90;99.90;;;;;;4962015;28;20072;-81
2021/06/09 07:29:00;;;;;;;49.88;44.78;;;23.90;99.90;;;;;;4964816;28;20050;-81
2021/06/09 07:31:31;;;;;;;47.78;42.72;;;24.00;99.90;;;;;;4981235;28;20046;-82
2021/06/09 07:33:59;;;;;;;52.22;46.83;;;24.10;99.90;;;;;;4945243;28;20046;-81
2021/06/09 07:36:47;;;;;;;52.22;44.85;;;24.30;99.90;;;;;;4960907;28;20065;-82
2021/06/09 07:39:43;;;;;;;50.25;44.92;;;23.80;99.90;;;;;;4969248;28;20058;-80
2021/06/09 07:42:13;;;;;;;50.15;45.08;;;24.00;99.90;;;;;;4974298;28;20057;-80
2021/06/09 07:44:52;;;;;;;50.08;44.65;;;23.70;99.90;;;;;;4989312;28;20042;-80
2021/06/09 07:47:20;;;;;;;51.15;45.60;;;23.80;99.90;;;;;;4988494;28;20053;-80
2021/06/09 07:49:50;;;;;;;49.92;44.45;;;23.70;99.90;;;;;;4971008;28;20043;-80
2021/06/09 07:52:19;;;;;;;50.83;45.38;;;23.50;99.90;;;;;;4978720;28;20118;-80
2021/06/09 07:54:48;;;;;;;53.40;47.75;;;23.50;99.90;;;;;;4995474;28;20033;-80
2021/06/09 07:57:17;;;;;;;52.42;46.85;;;23.20;99.90;;;;;;4962096;28;20070;-80
2021/06/09 07:59:44;;;;;;;52.15;46.50;;;23.00;99.90;;;;;;4977391;28;20067;-82
2021/06/09 08:02:16;;;;;;;57.35;46.42;;;22.90;99.90;;;;;;4975071;28;20058;-82
2021/06/09 08:04:43;;;;;;;55.05;47.55;;;22.70;99.90;;;;;;4977503;28;20489;-79
2021/06/09 08:07:10;;;;;;;53.65;46.05;;;22.30;99.90;;;;;;4978560;28;20056;-81
2021/06/09 08:09:37;;;;;;;49.90;44.50;;;22.20;99.90;;;;;;4998704;28;20060;-81
2021/06/09 08:12:06;;;;;;;49.42;44.30;;;22.50;99.90;;;;;;4961904;28;20043;-80
2021/06/09 08:14:34;;;;;;;49.20;43.85;;;22.90;99.90;;;;;;4962733;28;20046;-81
2021/06/09 08:17:07;;;;;;;50.35;44.95;;;23.40;99.90;;;;;;4974412;28;20077;-81
2021/06/09 08:19:37;;;;;;;52.47;45.33;;;23.50;99.90;;;;;;4962769;28;20050;-80
2021/06/09 08:22:04;;;;;;;50.47;45.38;;;23.60;99.90;;;;;;4994482;28;20516;-80
2021/06/09 08:24:32;;;;;;;53.00;44.58;;;23.40;99.90;;;;;;4978029;28;20306;-81
2021/06/09 08:27:04;;;;;;;50.85;45.65;;;23.20;99.90;;;;;;4972317;28;20047;-82
2021/06/09 08:29:36;;;;;;;48.22;43.33;;;23.30;99.90;;;;;;4980583;28;20046;-80
2021/06/09 08:32:05;;;;;;;52.05;46.80;;;23.50;99.90;;;;;;4984076;28;20537;-82
2021/06/09 08:34:33;;;;;;;50.88;45.67;;;23.70;99.90;;;;;;5011027;28;20053;-81
2021/06/09 08:37:01;;;;;;;44.63;40.33;;;24.00;99.90;;;;;;5007141;28;20105;-80
2021/06/09 08:39:28;;;;;;;45.20;40.65;;;24.20;99.90;;;;;;4974677;28;20046;-79
2021/06/09 08:41:56;;;;;;;40.67;36.67;;;24.60;99.90;;;;;;4986635;28;20054;-79
2021/06/09 08:44:25;;;;;;;43.05;38.90;;;25.00;99.90;;;;;;4965583;28;20050;-81
2021/06/09 08:46:57;;;;;;;42.95;38.67;;;24.30;99.90;;;;;;4977362;28;20051;-82
2021/06/09 08:49:24;;;;;;;44.47;40.38;;;24.10;99.90;;;;;;4962836;28;20050;-81
2021/06/09 08:51:54;;;;;;;43.30;38.90;;;24.40;99.90;;;;;;4939650;28;20129;-81
2021/06/09 08:54:23;;;;;;;44.42;40.05;;;24.90;99.90;;;;;;4943287;28;20138;-81
2021/06/09 08:56:51;;;;;;;42.75;38.75;;;24.80;99.90;;;;;;4969277;28;20137;-80
2021/06/09 08:59:22;;;;;;;40.33;36.35;;;24.90;99.90;;;;;;4977389;28;20058;-82
2021/06/09 09:01:50;;;;;;;36.85;33.58;;;25.00;99.90;;;;;;4980085;28;20050;-82
2021/06/09 09:04:18;;;;;;;36.88;33.50;;;25.20;99.90;;;;;;4971643;28;20418;-81
2021/06/09 09:06:45;;;;;;;38.53;34.67;;;25.50;99.90;;;;;;4979843;28;20045;-83
2021/06/09 09:09:13;;;;;;;40.78;37.17;;;25.80;99.90;;;;;;4968450;28;20121;-81
2021/06/09 09:11:39;;;;;;;36.33;32.97;;;25.70;99.90;;;;;;4974768;28;20053;-81
2021/06/09 09:14:06;;;;;;;36.50;33.50;;;26.00;99.90;;;;;;4988106;28;20050;-81
2021/06/09 09:16:33;;;;;;;38.47;34.90;;;26.70;99.90;;;;;;5004187;28;20049;-81
2021/06/09 09:19:02;;;;;;;40.08;36.58;;;26.80;99.90;;;;;;4992968;28;20113;-80
2021/06/09 09:21:43;;;;;;;39.42;35.95;;;27.00;99.90;;;;;;4968333;28;20062;-82
2021/06/09 09:24:12;;;;;;;37.78;34.30;;;26.90;99.90;;;;;;4963943;28;20050;-79
2021/06/09 09:26:42;;;;;;;40.15;36.22;;;26.90;99.90;;;;;;4970285;28;20062;-84
2021/06/09 09:29:10;;;;;;;40.38;36.72;;;26.70;99.90;;;;;;4998401;28;20046;-82
2021/06/09 09:32:05;;;;;;;42.75;38.38;;;26.40;99.90;;;;;;4992970;28;20065;-83
2021/06/09 09:34:38;;;;;;;39.58;36.00;;;26.00;99.90;;;;;;5012598;28;20117;-82
2021/06/09 09:37:08;;;;;;;38.33;34.58;;;25.60;99.90;;;;;;5006319;28;20053;-81
2021/06/09 09:39:36;;;;;;;37.45;34.17;;;25.30;99.90;;;;;;4993086;28;20148;-81
2021/06/09 09:42:26;;;;;;;35.53;32.35;;;25.10;99.90;;;;;;5032346;28;20065;-83
2021/06/09 09:44:53;;;;;;;36.67;33.38;;;25.20;99.90;;;;;;5015908;28;20041;-81
2021/06/09 09:47:23;;;;;;;35.72;32.63;;;25.50;99.90;;;;;;4978887;28;20033;-82
2021/06/09 09:49:51;;;;;;;39.70;35.90;;;25.80;99.90;;;;;;4990942;28;20068;-82
2021/06/09 09:52:18;;;;;;;40.25;36.33;;;25.70;99.90;;;;;;5006409;28;20041;-81
2021/06/09 09:55:05;;;;;;;40.70;36.90;;;25.50;99.90;;;;;;4990534;28;20684;-83
2021/06/09 09:57:35;;;;;;;37.53;33.78;;;25.30;99.90;;;;;;4989176;28;20069;-80
2021/06/09 10:00:05;;;;;;;37.28;33.67;;;25.20;99.90;;;;;;5000393;28;20060;-81
2021/06/09 10:02:33;;;;;;;36.83;33.22;;;25.40;99.90;;;;;;4995217;28;20058;-81
2021/06/09 10:05:12;;;;;;;40.03;36.17;;;25.50;99.90;;;;;;5003274;28;20038;-81
2021/06/09 10:07:59;;;;;;;36.08;32.78;;;25.60;99.90;;;;;;5006128;28;20533;-85
2021/06/09 10:10:26;;;;;;;35.55;32.13;;;25.80;99.90;;;;;;4991486;28;20058;-80
2021/06/09 10:13:11;;;;;;;35.42;32.25;;;25.60;99.90;;;;;;4989751;28;20046;-80
2021/06/09 10:15:47;;;;;;;34.47;31.25;;;25.40;99.90;;;;;;5004536;28;20068;-81
2021/06/09 10:18:16;;;;;;;36.75;33.00;;;25.30;99.90;;;;;;5019473;28;20041;-79
2021/06/09 10:20:47;;;;;;;32.92;29.77;;;25.30;99.90;;;;;;4998836;28;20054;-84
2021/06/09 10:23:38;;;;;;;30.00;27.25;;;25.30;99.90;;;;;;4989460;28;20034;-81
2021/06/09 10:26:14;;;;;;;29.48;26.67;;;25.10;99.90;;;;;;5001251;28;20042;-82
2021/06/09 10:29:14;;;;;;;28.67;26.27;;;24.90;99.90;;;;;;4968807;28;20050;-81
2021/06/09 10:31:47;;;;;;;29.77;27.17;;;25.00;99.90;;;;;;4978257;28;20089;-80
2021/06/09 10:34:14;;;;;;;24.48;22.33;;;25.30;99.90;;;;;;4990951;28;20046;-81
2021/06/09 10:36:45;;;;;;;23.40;21.70;;;25.80;99.90;;;;;;4982479;28;20060;-80
2021/06/09 10:39:13;;;;;;;22.55;20.70;;;26.30;99.90;;;;;;4977235;28;20098;-81
2021/06/09 10:41:42;;;;;;;25.77;23.88;;;26.40;99.90;;;;;;4974571;28;20114;-82
2021/06/09 10:44:10;;;;;;;29.55;26.95;;;26.30;99.90;;;;;;4980185;28;20046;-81
2021/06/09 10:46:42;;;;;;;30.90;28.13;;;26.20;99.90;;;;;;4974243;28;20043;-80
2021/06/09 10:49:14;;;;;;;32.35;29.30;;;26.20;99.90;;;;;;4979890;28;20073;-80
2021/06/09 10:51:42;;;;;;;31.75;29.05;;;26.10;99.90;;;;;;4956030;28;20125;-82
2021/06/09 10:54:13;;;;;;;31.13;28.63;;;26.10;99.90;;;;;;4959951;28;20066;-81
2021/06/09 10:56:45;;;;;;;27.38;25.17;;;26.40;99.90;;;;;;4967223;28;20042;-81
2021/06/09 10:59:27;;;;;;;26.63;24.40;;;26.50;99.90;;;;;;4967100;28;20053;-82
2021/06/09 11:02:05;;;;;;;26.10;24.05;;;26.50;99.90;;;;;;4960242;28;20038;-82
2021/06/09 11:04:37;;;;;;;27.25;25.05;;;26.90;99.90;;;;;;4967098;28;20042;-82
2021/06/09 11:07:06;;;;;;;26.05;24.00;;;27.10;99.90;;;;;;4983672;28;20077;-81
2021/06/09 11:09:33;;;;;;;27.70;25.27;;;27.30;99.90;;;;;;4967810;28;20039;-84
2021/06/09 11:12:12;;;;;;;28.63;26.35;;;27.20;99.90;;;;;;4975830;28;20042;-80
2021/06/09 11:14:52;;;;;;;27.90;25.77;;;26.80;99.90;;;;;;4967876;28;20046;-82
2021/06/09 11:17:45;;;;;;;28.58;26.38;;;26.80;99.90;;;;;;4991587;28;20493;-82
2021/06/09 11:20:15;;;;;;;27.92;25.67;;;27.00;99.90;;;;;;4962951;28;20105;-81
2021/06/09 11:22:54;;;;;;;28.58;26.10;;;27.30;99.90;;;;;;4964117;28;20052;-83
2021/06/09 11:25:43;;;;;;;29.73;27.38;;;27.30;99.90;;;;;;4959227;28;20050;-83
2021/06/09 11:28:32;;;;;;;29.30;26.90;;;27.10;99.90;;;;;;4963453;28;20042;-82
2021/06/09 11:31:07;;;;;;;29.75;27.45;;;27.10;99.90;;;;;;4987029;28;20069;-83
2021/06/09 11:33:36;;;;;;;28.65;26.33;;;26.90;99.90;;;;;;4984740;28;20044;-81
2021/06/09 11:36:26;;;;;;;26.70;24.55;;;27.00;99.90;;;;;;4976893;28;20105;-82
2021/06/09 11:39:18;;;;;;;27.15;24.77;;;27.30;99.90;;;;;;4966780;28;20137;-81
2021/06/09 11:41:46;;;;;;;27.85;25.42;;;27.20;99.90;;;;;;4953757;28;20133;-83
2021/06/09 11:44:35;;;;;;;28.52;26.13;;;26.90;99.90;;;;;;4980151;28;20050;-82
2021/06/09 11:47:25;;;;;;;28.75;26.52;;;26.50;99.90;;;;;;4957862;28;20051;-83
2021/06/09 11:49:55;;;;;;;28.02;25.92;;;26.40;99.90;;;;;;4986198;28;20046;-81
2021/06/09 11:52:22;;;;;;;27.98;25.67;;;26.60;99.90;;;;;;4991020;28;20046;-80
2021/06/09 11:55:11;;;;;;;25.20;23.40;;;26.80;99.90;;;;;;4983135;28;20035;-83
2021/06/09 11:57:38;;;;;;;26.02;23.67;;;27.00;99.90;;;;;;4957539;28;20134;-83
2021/06/09 12:00:09;;;;;;;24.15;22.33;;;27.10;99.90;;;;;;4956492;28;20501;-81
2021/06/09 12:02:36;;;;;;;23.65;21.85;;;27.00;99.90;;;;;;4959955;28;20066;-82
2021/06/09 12:05:04;;;;;;;24.77;22.77;;;27.10;99.90;;;;;;4996662;28;20046;-83
2021/06/09 12:07:33;;;;;;;22.48;21.00;;;27.00;99.90;;;;;;4948098;28;20054;-81
2021/06/09 12:10:11;;;;;;;24.48;22.48;;;27.10;99.90;;;;;;4978267;28;20083;-81
2021/06/09 12:12:38;;;;;;;24.25;22.45;;;27.40;99.90;;;;;;5002110;28;20586;-82
2021/06/09 12:15:10;;;;;;;23.60;21.77;;;27.40;99.90;;;;;;4990250;28;20153;-81
2021/06/09 12:17:41;;;;;;;23.60;21.90;;;27.40;99.90;;;;;;5004131;28;20064;-82
2021/06/09 12:20:11;;;;;;;26.50;24.20;;;27.50;99.90;;;;;;4963846;28;20555;-83
2021/06/09 12:22:44;;;;;;;25.17;23.23;;;27.40;99.90;;;;;;4957101;28;20137;-81
2021/06/09 12:25:18;;;;;;;28.02;25.83;;;27.50;99.90;;;;;;4960075;28;20652;-80
2021/06/09 12:28:02;;;;;;;24.88;22.92;;;27.30;99.90;;;;;;4992544;28;20050;-82
2021/06/09 12:30:30;;;;;;;24.85;23.02;;;27.40;99.90;;;;;;4974402;28;20166;-82
2021/06/09 12:32:59;;;;;;;25.52;23.52;;;27.40;99.90;;;;;;4953485;28;20343;-78
2021/06/09 12:35:27;;;;;;;23.90;22.08;;;27.20;99.90;;;;;;4971352;28;20058;-82
2021/06/09 12:37:58;;;;;;;24.27;22.25;;;27.30;99.90;;;;;;4982186;28;20113;-82
2021/06/09 12:40:31;;;;;;;22.20;20.52;;;27.40;99.90;;;;;;4976850;28;20046;-82
2021/06/09 12:43:01;;;;;;;24.50;22.58;;;27.40;99.90;;;;;;4954230;28;20047;-81
2021/06/09 12:45:31;;;;;;;22.58;20.88;;;27.30;99.90;;;;;;4972277;28;20052;-83
2021/06/09 12:48:10;;;;;;;22.67;21.08;;;27.20;99.90;;;;;;4986135;28;20698;-80
2021/06/09 12:50:42;;;;;;;23.40;21.63;;;27.10;99.90;;;;;;4996513;28;20049;-82